Aberdare, United Kingdom
Current Conditions -  °F | °C
As of 4:50 AM on Saturday 20 Dec 2014 (Local Time) from EGDX Reporting Station
Broken Clouds Broken Clouds  
Wind Chill:   Ceiling: 4300
Heat Index:   Visibility: 6mi
Dew Point:   Wind: 22mph
Humidity: 71%   Direction: 290°WNW
Pressure: 30.27"   Gusts: NA
Location:  51.71°N, 3.45°W
Report Text: EGDX 200450Z AUTO 29019KT 9999 BKN043/// 09/04 Q1025
Loading
Personal Weather Stations






























Interactive Weather Map New forecast layout! Learn more

10-Day Weather Forecast

Advertisements
Track Severe Weather on mobile